Scioto Mills, Illinois
Current Conditions -  °F | °C
As of 2:55 PM on Sunday 21 Dec 2014 (Local Time) from KFEP Reporting Station
Overcast Overcast  
Wind Chill: 27°   Ceiling: 2600
Heat Index: 37°   Visibility: 10mi
Dew Point: 32°   Wind: 17mph
Humidity: 84%   Direction: 170°S
Pressure: 30.02"   Gusts: NA
Location:  42.36°N, 89.67°W
Report Text: KFEP 212055Z AUTO 17015KT 10SM OVC026 03/00 A3002 RMK AO2 T00250000
Loading
Personal Weather Stations






























Interactive Weather Map New forecast layout! Learn more

10-Day Weather Forecast

Advertisements
Track Severe Weather on mobile